Time;durP1;ratioP1;P1;durP2;ratioP2;P2;SDS_P1;SDS_P2;PMS_P1;PMS_P2;Temp;Humidity;BMP_temperature;BMP_pressure;BME280_temperature;BME280_humidity;BME280_pressure;Samples;Min_cycle;Max_cycle;Signal;HPM_P1;HPM_P2
2021/01/27 00:00:35;;;;;;;3.22;2.00;;;14.30;99.90;;;;;;5011937;28;20049;-63
2021/01/27 00:03:01;;;;;;;4.25;2.05;;;14.20;99.90;;;;;;5012130;28;20026;-63
2021/01/27 00:05:31;;;;;;;3.22;1.88;;;14.20;99.90;;;;;;5012125;28;20390;-63
2021/01/27 00:07:57;;;;;;;8.65;2.30;;;14.20;99.90;;;;;;5012439;28;20029;-63
2021/01/27 00:10:23;;;;;;;2.35;2.10;;;14.10;99.90;;;;;;5012145;28;20112;-63
2021/01/27 00:12:49;;;;;;;4.47;2.42;;;14.10;99.90;;;;;;5011438;28;20018;-63
2021/01/27 00:15:23;;;;;;;4.75;2.10;;;14.10;99.90;;;;;;5011949;28;20113;-64
2021/01/27 00:17:48;;;;;;;4.18;2.50;;;14.00;99.90;;;;;;5011838;28;20116;-62
2021/01/27 00:20:17;;;;;;;3.03;2.15;;;14.00;99.90;;;;;;5011782;28;20124;-63
2021/01/27 00:22:43;;;;;;;3.08;1.85;;;14.00;99.90;;;;;;5011628;28;20041;-62
2021/01/27 00:25:10;;;;;;;2.80;1.98;;;14.00;99.90;;;;;;5011916;28;20061;-63
2021/01/27 00:27:35;;;;;;;4.40;2.00;;;13.90;99.90;;;;;;5011177;28;20033;-62
2021/01/27 00:30:02;;;;;;;3.15;1.90;;;14.00;99.90;;;;;;5012068;28;20030;-63
2021/01/27 00:32:28;;;;;;;4.40;2.30;;;13.90;99.90;;;;;;5012148;28;20079;-63
2021/01/27 00:34:54;;;;;;;2.95;2.28;;;13.90;99.90;;;;;;5011337;28;20030;-64
2021/01/27 00:37:22;;;;;;;3.65;1.70;;;13.90;99.90;;;;;;5011871;28;20030;-60
2021/01/27 00:39:47;;;;;;;3.25;2.00;;;13.90;99.90;;;;;;5011310;28;20048;-62
2021/01/27 00:42:13;;;;;;;3.33;2.17;;;13.80;99.90;;;;;;5011627;28;20052;-62
2021/01/27 00:44:38;;;;;;;2.90;1.90;;;13.80;99.90;;;;;;5011029;28;20495;-61
2021/01/27 00:47:04;;;;;;;4.40;2.45;;;13.80;99.90;;;;;;5011605;28;20057;-62
2021/01/27 00:49:30;;;;;;;4.32;2.10;;;13.80;99.90;;;;;;5011783;28;20029;-61
2021/01/27 00:51:55;;;;;;;2.70;1.90;;;13.80;99.90;;;;;;5011375;28;20030;-61
2021/01/27 00:54:21;;;;;;;3.63;2.10;;;13.80;99.90;;;;;;5011302;28;20091;-61
2021/01/27 00:56:46;;;;;;;2.85;1.90;;;13.70;99.90;;;;;;5010755;28;20026;-61
2021/01/27 00:59:12;;;;;;;4.35;1.77;;;13.70;99.90;;;;;;5011312;28;20030;-61
2021/01/27 01:01:38;;;;;;;3.35;1.98;;;13.70;99.90;;;;;;5010754;28;20113;-61
2021/01/27 01:04:04;;;;;;;2.80;1.80;;;13.70;99.90;;;;;;5011447;28;20029;-63
2021/01/27 01:06:30;;;;;;;3.92;1.80;;;13.60;99.90;;;;;;5012025;28;20385;-61
2021/01/27 01:08:56;;;;;;;2.92;1.98;;;13.60;99.90;;;;;;5011283;28;20188;-61
2021/01/27 01:11:22;;;;;;;3.30;1.70;;;13.60;99.90;;;;;;5011389;28;20034;-61
2021/01/27 01:13:48;;;;;;;3.58;1.83;;;13.60;99.90;;;;;;5011195;28;20026;-59
2021/01/27 01:16:13;;;;;;;2.83;1.80;;;13.60;99.90;;;;;;5011427;28;20466;-62
2021/01/27 01:18:39;;;;;;;3.20;1.83;;;13.50;99.90;;;;;;5011095;28;20516;-62
2021/01/27 01:21:05;;;;;;;3.22;1.92;;;13.50;99.90;;;;;;5011389;28;20022;-61
2021/01/27 01:23:31;;;;;;;4.35;1.90;;;13.50;99.90;;;;;;5011790;28;20022;-61
2021/01/27 01:25:57;;;;;;;3.45;1.80;;;13.50;99.90;;;;;;5015440;28;20505;-61
2021/01/27 01:28:22;;;;;;;2.88;1.95;;;13.50;99.90;;;;;;5015316;28;20021;-60
2021/01/27 01:30:49;;;;;;;2.35;1.63;;;13.50;99.90;;;;;;5014971;28;20090;-59
2021/01/27 01:33:19;;;;;;;2.92;1.70;;;13.50;99.90;;;;;;5015168;28;20030;-60
2021/01/27 01:35:45;;;;;;;3.15;2.00;;;13.50;99.90;;;;;;5014908;28;20024;-60
2021/01/27 01:38:12;;;;;;;3.22;1.60;;;13.40;99.90;;;;;;5014682;28;20470;-59
2021/01/27 01:40:44;;;;;;;6.35;2.00;;;13.40;99.90;;;;;;5014692;28;20049;-60
2021/01/27 01:43:17;;;;;;;2.85;1.50;;;13.40;99.90;;;;;;5014829;28;20085;-60
2021/01/27 01:45:44;;;;;;;5.28;1.80;;;13.40;99.90;;;;;;5014766;28;20084;-59
2021/01/27 01:48:19;;;;;;;6.68;1.67;;;13.30;99.90;;;;;;5014860;28;20029;-61
2021/01/27 01:50:48;;;;;;;2.88;1.58;;;13.40;99.90;;;;;;5014582;28;20037;-60
2021/01/27 01:53:14;;;;;;;2.85;1.70;;;13.30;99.90;;;;;;5014311;28;20053;-60
2021/01/27 01:55:41;;;;;;;5.03;1.67;;;13.30;99.90;;;;;;4998472;28;20434;-59
2021/01/27 01:58:09;;;;;;;2.33;1.48;;;13.30;99.90;;;;;;5014810;28;20112;-62
2021/01/27 02:00:38;;;;;;;2.40;1.50;;;13.30;99.90;;;;;;5014398;28;20479;-63
2021/01/27 02:03:07;;;;;;;4.22;1.23;;;13.20;99.90;;;;;;5014579;28;20037;-62
2021/01/27 02:05:32;;;;;;;3.45;1.63;;;13.20;99.90;;;;;;5013954;28;20033;-62
2021/01/27 02:07:58;;;;;;;2.83;1.35;;;13.20;99.90;;;;;;5014979;28;20026;-60
2021/01/27 02:10:24;;;;;;;2.05;1.38;;;13.20;99.90;;;;;;5014432;28;20033;-60
2021/01/27 02:13:24;;;;;;;2.67;1.45;;;13.20;99.90;;;;;;5014341;28;20022;-62
2021/01/27 02:16:08;;;;;;;2.65;1.40;;;13.10;99.90;;;;;;5014145;28;20505;-61
2021/01/27 02:19:04;;;;;;;4.03;1.55;;;13.20;99.90;;;;;;5013729;28;20058;-60
2021/01/27 02:22:07;;;;;;;3.65;1.70;;;13.10;99.90;;;;;;5014539;28;20105;-62
2021/01/27 02:24:38;;;;;;;4.07;1.50;;;13.10;99.90;;;;;;5013491;28;20057;-62
2021/01/27 02:27:52;;;;;;;2.03;1.30;;;13.00;99.90;;;;;;5013861;28;20030;-61
2021/01/27 02:30:39;;;;;;;2.63;1.58;;;13.10;99.90;;;;;;5005188;28;20088;-62
2021/01/27 02:33:34;;;;;;;2.75;1.35;;;13.10;99.90;;;;;;5014040;28;20026;-62
2021/01/27 02:36:02;;;;;;;2.08;1.10;;;13.10;99.90;;;;;;5013903;28;20022;-62
2021/01/27 02:38:51;;;;;;;2.13;1.13;;;13.00;99.90;;;;;;5013965;28;20034;-63
2021/01/27 02:41:25;;;;;;;2.20;1.38;;;13.00;99.90;;;;;;5013884;28;20041;-61
2021/01/27 02:43:58;;;;;;;4.22;1.58;;;13.00;99.90;;;;;;5013688;28;20034;-61
2021/01/27 02:46:30;;;;;;;4.32;1.65;;;13.00;99.90;;;;;;5013764;28;20030;-63
2021/01/27 02:49:02;;;;;;;3.35;1.27;;;13.00;99.90;;;;;;5013484;28;20030;-61
2021/01/27 02:51:42;;;;;;;2.80;1.65;;;12.90;99.90;;;;;;5013830;28;20040;-62
2021/01/27 02:54:18;;;;;;;2.47;1.40;;;12.90;99.90;;;;;;5013216;28;20041;-60
2021/01/27 02:56:56;;;;;;;2.85;1.50;;;12.90;99.90;;;;;;5013399;28;20489;-61
2021/01/27 02:59:32;;;;;;;1.90;1.48;;;12.90;99.90;;;;;;5013084;28;20371;-62
2021/01/27 03:02:04;;;;;;;2.50;1.52;;;12.90;99.90;;;;;;5013686;28;20088;-63
2021/01/27 03:04:36;;;;;;;3.85;1.30;;;12.90;99.90;;;;;;5013632;28;20478;-63
2021/01/27 03:07:02;;;;;;;1.88;1.20;;;12.80;99.90;;;;;;5013555;28;20030;-63
2021/01/27 03:09:42;;;;;;;2.70;1.30;;;12.90;99.90;;;;;;5012390;28;20029;-63
2021/01/27 03:12:09;;;;;;;2.38;1.40;;;12.80;99.90;;;;;;5013274;28;20025;-64
2021/01/27 03:14:35;;;;;;;1.65;1.25;;;12.80;99.90;;;;;;5012948;28;20032;-62
2021/01/27 03:17:05;;;;;;;3.78;1.38;;;12.80;99.90;;;;;;5013418;28;20386;-62
2021/01/27 03:19:37;;;;;;;2.20;1.40;;;12.80;99.90;;;;;;5013372;28;20038;-61
2021/01/27 03:22:21;;;;;;;3.63;1.33;;;12.80;99.90;;;;;;5013040;28;20054;-63
2021/01/27 03:24:52;;;;;;;;;;;12.80;99.90;;;;;;5013076;28;20037;-63
2021/01/27 03:27:24;;;;;;;2.70;1.42;;;12.80;99.90;;;;;;5012907;28;19975;-63
2021/01/27 03:29:57;;;;;;;2.03;1.20;;;12.80;99.90;;;;;;5012886;28;20037;-63
2021/01/27 03:32:28;;;;;;;4.53;1.40;;;12.80;99.90;;;;;;5012195;28;20033;-64
2021/01/27 03:35:29;;;;;;;2.00;1.38;;;12.80;99.90;;;;;;5012674;28;20034;-63
2021/01/27 03:38:03;;;;;;;2.22;1.40;;;12.70;99.90;;;;;;5012544;28;20026;-63
2021/01/27 03:40:29;;;;;;;2.80;1.35;;;12.70;99.90;;;;;;5012335;28;20041;-63
2021/01/27 03:43:13;;;;;;;3.38;1.42;;;12.70;99.90;;;;;;5012734;28;20517;-63
2021/01/27 03:45:46;;;;;;;3.88;1.50;;;12.70;99.90;;;;;;5012387;28;20030;-61
2021/01/27 03:48:22;;;;;;;2.35;1.52;;;12.70;99.90;;;;;;5012105;28;20034;-65
2021/01/27 03:50:53;;;;;;;2.00;1.40;;;12.60;99.90;;;;;;5012382;28;20034;-63
2021/01/27 03:53:19;;;;;;;2.28;1.35;;;12.60;99.90;;;;;;5012013;28;20026;-61
2021/01/27 03:55:52;;;;;;;2.15;1.25;;;12.60;99.90;;;;;;5012216;28;20390;-65
2021/01/27 03:58:32;;;;;;;2.33;1.60;;;12.60;99.90;;;;;;5012438;28;20038;-62
2021/01/27 04:01:04;;;;;;;2.33;1.35;;;12.60;99.90;;;;;;5012728;28;20430;-64
2021/01/27 04:03:30;;;;;;;3.35;1.45;;;12.60;99.90;;;;;;5012807;28;20022;-62
2021/01/27 04:05:56;;;;;;;2.03;1.30;;;12.60;99.90;;;;;;5012044;28;20470;-62
2021/01/27 04:08:22;;;;;;;2.10;1.40;;;12.60;99.90;;;;;;5012254;28;20040;-62
2021/01/27 04:10:48;;;;;;;2.05;1.30;;;12.50;99.90;;;;;;5011837;28;20028;-63
2021/01/27 04:13:13;;;;;;;2.67;1.52;;;12.50;99.90;;;;;;5012116;28;20057;-64
2021/01/27 04:15:39;;;;;;;1.90;1.27;;;12.50;99.90;;;;;;5011894;28;20508;-62
2021/01/27 04:18:05;;;;;;;2.17;1.23;;;12.50;99.90;;;;;;5012096;28;20026;-64
2021/01/27 04:20:30;;;;;;;2.63;1.50;;;12.50;99.90;;;;;;5012257;28;20394;-62
2021/01/27 04:22:56;;;;;;;2.15;1.25;;;12.50;99.90;;;;;;5011350;28;20026;-62
2021/01/27 04:25:22;;;;;;;2.53;1.58;;;12.50;99.90;;;;;;5011633;28;20030;-62
2021/01/27 04:27:48;;;;;;;3.35;1.50;;;12.50;99.90;;;;;;5011929;28;20432;-63
2021/01/27 04:30:20;;;;;;;2.38;1.33;;;12.50;99.90;;;;;;5011975;28;20037;-63
2021/01/27 04:32:46;;;;;;;2.15;1.30;;;12.40;99.90;;;;;;5011677;28;20072;-63
2021/01/27 04:35:13;;;;;;;3.00;1.52;;;12.50;99.90;;;;;;5011850;28;20445;-62
2021/01/27 04:37:39;;;;;;;2.03;1.52;;;12.40;99.90;;;;;;5011360;28;20084;-63
2021/01/27 04:40:11;;;;;;;2.20;1.30;;;12.50;99.90;;;;;;5011802;28;20125;-63
2021/01/27 04:42:37;;;;;;;2.53;1.50;;;12.50;99.90;;;;;;5011389;28;20351;-63
2021/01/27 04:45:05;;;;;;;3.63;1.70;;;12.40;99.90;;;;;;5011385;28;20030;-62
2021/01/27 04:47:40;;;;;;;1.98;1.40;;;12.40;99.90;;;;;;5011823;28;20026;-62
2021/01/27 04:50:17;;;;;;;2.15;1.42;;;12.40;99.90;;;;;;5011575;28;20326;-63
2021/01/27 04:53:12;;;;;;;3.03;1.40;;;12.40;99.90;;;;;;5010994;28;20032;-62
2021/01/27 04:55:37;;;;;;;;;;;12.40;99.90;;;;;;4993714;28;20038;-64
2021/01/27 04:58:14;;;;;;;2.65;1.48;;;12.40;99.90;;;;;;5011511;28;20277;-62
2021/01/27 05:00:45;;;;;;;3.85;1.73;;;12.40;99.90;;;;;;5010961;28;20042;-62
2021/01/27 05:03:30;;;;;;;2.13;1.50;;;12.40;99.90;;;;;;5011666;28;20385;-63
2021/01/27 05:06:01;;;;;;;3.47;1.80;;;12.30;99.90;;;;;;5011262;28;20030;-63
2021/01/27 05:08:31;;;;;;;2.20;1.42;;;12.30;99.90;;;;;;5011781;28;20378;-62
2021/01/27 05:11:01;;;;;;;2.63;1.33;;;12.30;99.90;;;;;;5011729;28;20088;-62
2021/01/27 05:13:44;;;;;;;2.25;1.30;;;12.30;99.90;;;;;;5010350;28;20137;-61
2021/01/27 05:16:16;;;;;;;3.10;1.58;;;12.30;99.90;;;;;;5011131;28;20018;-64
2021/01/27 05:18:42;;;;;;;2.58;1.83;;;12.30;99.90;;;;;;5011178;28;20400;-62
2021/01/27 05:21:26;;;;;;;3.63;1.75;;;12.30;99.90;;;;;;5011210;28;20045;-62
2021/01/27 05:23:52;;;;;;;;;;;12.30;99.90;;;;;;5011114;28;20026;-61
2021/01/27 05:26:20;;;;;;;2.92;1.88;;;12.30;99.90;;;;;;5010673;28;20337;-62
2021/01/27 05:29:06;;;;;;;2.40;1.48;;;12.30;99.90;;;;;;5011042;28;20018;-62
2021/01/27 05:32:01;;;;;;;1.95;1.42;;;12.30;99.90;;;;;;5011232;28;20030;-63
2021/01/27 05:34:28;;;;;;;;;;;12.30;99.90;;;;;;5011713;28;20057;-62
2021/01/27 05:36:53;;;;;;;2.22;1.50;;;12.30;99.90;;;;;;5011025;28;19913;-62
2021/01/27 05:39:27;;;;;;;2.58;1.60;;;12.20;99.90;;;;;;5011308;28;20034;-63
2021/01/27 05:42:11;;;;;;;2.65;1.65;;;12.30;99.90;;;;;;5011027;28;20041;-63
2021/01/27 05:44:38;;;;;;;2.17;1.42;;;12.20;99.90;;;;;;5010935;28;20467;-63
2021/01/27 05:47:39;;;;;;;3.72;1.70;;;12.20;99.90;;;;;;5011058;28;20029;-64
2021/01/27 05:50:22;;;;;;;4.25;1.92;;;12.20;99.90;;;;;;4970045;28;20031;-63
2021/01/27 05:52:48;;;;;;;1.88;1.50;;;12.20;99.90;;;;;;5006798;28;20121;-63
2021/01/27 05:55:14;;;;;;;2.63;1.50;;;12.20;99.90;;;;;;5011177;28;20101;-62
2021/01/27 05:57:41;;;;;;;3.25;1.83;;;12.20;99.90;;;;;;5010867;28;20033;-63
2021/01/27 06:00:11;;;;;;;2.33;1.60;;;12.20;99.90;;;;;;5010648;28;20042;-62
2021/01/27 06:02:42;;;;;;;2.33;1.45;;;12.20;99.90;;;;;;5010561;28;20021;-64
2021/01/27 06:05:15;;;;;;;2.47;1.55;;;12.20;99.90;;;;;;5011011;28;20034;-62
2021/01/27 06:07:41;;;;;;;2.47;1.60;;;12.10;99.90;;;;;;5010872;28;20164;-62
2021/01/27 06:10:26;;;;;;;2.42;1.85;;;12.10;99.90;;;;;;5012070;28;20041;-62
2021/01/27 06:12:51;;;;;;;;;;;12.10;99.90;;;;;;5014577;28;20481;-61
2021/01/27 06:15:29;;;;;;;2.45;1.80;;;12.10;99.90;;;;;;5014461;28;20025;-62
2021/01/27 06:17:54;;;;;;;2.33;1.45;;;12.10;99.90;;;;;;5014272;28;20121;-61
2021/01/27 06:20:32;;;;;;;3.08;1.70;;;12.10;99.90;;;;;;5014713;28;20105;-62
2021/01/27 06:23:34;;;;;;;2.83;1.60;;;12.10;99.90;;;;;;5014387;28;20030;-62
2021/01/27 06:26:32;;;;;;;2.72;1.70;;;12.10;99.90;;;;;;5014642;28;20026;-61
2021/01/27 06:29:14;;;;;;;2.63;1.60;;;12.10;99.90;;;;;;5013401;28;20040;-64
2021/01/27 06:32:01;;;;;;;2.17;1.70;;;12.10;99.90;;;;;;5013750;28;20057;-62
2021/01/27 06:34:47;;;;;;;3.08;1.70;;;12.10;99.90;;;;;;5014466;28;20052;-60
2021/01/27 06:37:16;;;;;;;2.17;1.50;;;12.10;99.90;;;;;;5013801;28;20030;-62
2021/01/27 06:40:19;;;;;;;2.40;1.60;;;12.10;99.90;;;;;;5013747;28;20545;-64
2021/01/27 06:43:11;;;;;;;2.72;1.80;;;12.10;99.90;;;;;;5013639;28;20033;-62
2021/01/27 06:45:58;;;;;;;2.83;2.03;;;12.00;99.90;;;;;;5011879;28;20033;-62
2021/01/27 06:48:48;;;;;;;4.00;1.90;;;12.10;99.90;;;;;;5013900;28;20499;-63
2021/01/27 06:51:41;;;;;;;2.42;1.42;;;12.10;99.90;;;;;;5013871;28;20421;-62
2021/01/27 06:54:41;;;;;;;1.65;1.20;;;12.30;99.90;;;;;;4994298;28;20482;-64
2021/01/27 06:57:41;;;;;;;6.55;1.13;;;12.60;99.90;;;;;;4977021;28;20070;-65
2021/01/27 07:00:28;;;;;;;2.20;0.90;;;12.90;99.90;;;;;;5013601;28;20041;-73
2021/01/27 07:03:15;;;;;;;3.10;1.10;;;13.00;99.90;;;;;;5013437;28;20018;-69
2021/01/27 07:05:59;;;;;;;2.30;1.20;;;13.20;99.90;;;;;;5013102;28;20061;-69
2021/01/27 07:09:02;;;;;;;1.70;1.25;;;13.40;99.90;;;;;;5013504;28;20026;-73
2021/01/27 07:11:50;;;;;;;5.10;1.33;;;13.50;99.90;;;;;;5013787;28;20041;-66
2021/01/27 07:14:40;;;;;;;3.80;1.27;;;13.70;99.90;;;;;;5013420;28;20018;-63
2021/01/27 07:17:28;;;;;;;5.72;1.38;;;13.80;99.90;;;;;;5013227;28;20026;-64
2021/01/27 07:20:12;;;;;;;2.70;1.30;;;13.60;99.90;;;;;;5013009;28;20033;-63
2021/01/27 07:23:06;;;;;;;2.60;1.30;;;13.50;99.90;;;;;;5011421;28;20037;-63
2021/01/27 07:25:50;;;;;;;3.83;1.07;;;13.40;99.90;;;;;;4994204;28;20538;-64
2021/01/27 07:28:34;;;;;;;;;;;13.30;99.90;;;;;;5012652;28;20038;-63
2021/01/27 07:31:04;;;;;;;3.65;1.40;;;13.30;99.90;;;;;;5011555;28;19909;-63
2021/01/27 07:33:47;;;;;;;4.43;1.35;;;13.20;99.90;;;;;;5012761;28;20501;-63
2021/01/27 07:36:34;;;;;;;4.07;1.33;;;13.20;99.90;;;;;;5012924;28;20101;-63
2021/01/27 07:39:04;;;;;;;2.42;1.10;;;13.10;99.90;;;;;;5012911;28;20733;-64
2021/01/27 07:41:44;;;;;;;2.25;1.02;;;13.10;99.90;;;;;;5013183;28;20029;-63
2021/01/27 07:44:15;;;;;;;4.88;1.40;;;13.10;99.90;;;;;;5012881;28;20022;-63
2021/01/27 07:47:01;;;;;;;2.88;1.60;;;13.10;99.90;;;;;;5011677;28;20033;-63
2021/01/27 07:49:48;;;;;;;2.08;1.30;;;13.00;99.90;;;;;;5011198;28;20049;-63
2021/01/27 07:52:26;;;;;;;1.70;1.30;;;13.00;99.90;;;;;;5012552;28;20383;-63
2021/01/27 07:55:03;;;;;;;1.73;1.30;;;13.00;99.90;;;;;;5012389;28;20052;-63
2021/01/27 07:57:55;;;;;;;2.08;1.27;;;13.00;99.90;;;;;;5012570;28;20040;-63
2021/01/27 08:00:37;;;;;;;4.45;2.65;;;13.00;99.90;;;;;;5011365;28;20053;-68
2021/01/27 08:03:25;;;;;;;6.90;4.97;;;12.90;99.90;;;;;;5012503;28;20026;-64
2021/01/27 08:06:02;;;;;;;9.52;3.90;;;12.30;99.90;;;;;;5009722;28;20046;-61
2021/01/27 08:08:30;;;;;;;3.97;2.60;;;13.40;99.90;;;;;;5011855;28;20049;-61
2021/01/27 08:11:08;;;;;;;3.50;1.90;;;14.70;99.30;;;;;;5011534;28;20021;-61
2021/01/27 08:13:38;;;;;;;3.35;1.85;;;15.80;98.10;;;;;;5011100;28;20045;-67
2021/01/27 08:16:15;;;;;;;3.45;1.70;;;16.60;97.30;;;;;;5011831;28;20037;-62
2021/01/27 08:19:12;;;;;;;2.53;1.70;;;17.30;96.90;;;;;;5011838;28;20064;-63
2021/01/27 08:21:47;;;;;;;2.63;1.58;;;17.70;95.90;;;;;;5011929;28;20494;-63
2021/01/27 08:24:37;;;;;;;3.85;1.52;;;18.00;95.50;;;;;;5012107;28;20033;-63
2021/01/27 08:27:14;;;;;;;2.22;1.10;;;18.30;95.10;;;;;;5009837;28;20026;-69
2021/01/27 08:29:55;;;;;;;3.95;1.20;;;18.60;94.80;;;;;;5010637;28;20026;-73
2021/01/27 08:32:40;;;;;;;1.48;1.10;;;19.00;94.50;;;;;;5010818;28;20026;-71
2021/01/27 08:35:09;;;;;;;1.90;1.00;;;19.60;94.10;;;;;;5011964;28;20022;-71
2021/01/27 08:37:39;;;;;;;2.95;1.30;;;20.00;93.80;;;;;;5011521;28;20027;-68
2021/01/27 08:40:29;;;;;;;2.03;1.27;;;19.90;94.20;;;;;;5011407;28;20117;-69
2021/01/27 08:42:57;;;;;;;1.45;1.00;;;20.20;93.70;;;;;;5011114;28;20034;-69
2021/01/27 08:45:23;;;;;;;1.35;0.80;;;20.50;93.40;;;;;;5011689;28;20033;-71
2021/01/27 08:47:54;;;;;;;1.40;0.80;;;20.90;93.20;;;;;;5009504;28;20026;-68
2021/01/27 08:50:52;;;;;;;1.13;0.63;;;21.10;92.90;;;;;;5009494;28;20117;-67
2021/01/27 08:53:27;;;;;;;1.85;0.73;;;21.40;92.70;;;;;;4999072;28;20030;-64
2021/01/27 08:56:01;;;;;;;2.13;0.90;;;21.50;92.40;;;;;;5010605;28;20026;-63
2021/01/27 08:58:35;;;;;;;2.28;0.80;;;21.50;92.20;;;;;;5010281;28;20029;-68
2021/01/27 09:01:08;;;;;;;1.83;0.90;;;21.70;92.50;;;;;;5011791;28;20402;-70
2021/01/27 09:03:37;;;;;;;4.28;1.10;;;21.50;92.10;;;;;;5011403;28;20025;-66
2021/01/27 09:06:22;;;;;;;2.65;0.60;;;21.60;92.30;;;;;;5011315;28;20036;-67
2021/01/27 09:08:48;;;;;;;2.00;0.73;;;22.10;92.10;;;;;;5010265;28;20034;-68
2021/01/27 09:11:17;;;;;;;4.68;0.60;;;22.60;91.90;;;;;;5011094;28;20026;-68
2021/01/27 09:13:45;;;;;;;1.40;0.60;;;22.80;91.80;;;;;;5011119;28;20036;-67
2021/01/27 09:16:28;;;;;;;1.40;0.70;;;23.10;92.10;;;;;;5010977;28;20033;-65
2021/01/27 09:19:02;;;;;;;0.60;0.40;;;23.30;91.70;;;;;;5011269;28;20037;-66
2021/01/27 09:21:29;;;;;;;;;;;23.00;92.10;;;;;;5011851;28;20095;-66
2021/01/27 09:24:02;;;;;;;0.80;0.47;;;21.80;93.10;;;;;;5011243;28;19988;-66
2021/01/27 09:26:37;;;;;;;0.73;0.45;;;21.30;94.00;;;;;;5011758;28;20113;-69
2021/01/27 09:29:08;;;;;;;1.08;0.43;;;22.20;93.40;;;;;;5011435;28;20026;-67
2021/01/27 09:31:34;;;;;;;1.13;0.50;;;22.90;92.70;;;;;;5011118;28;20018;-64
2021/01/27 09:34:11;;;;;;;1.77;0.40;;;23.40;92.40;;;;;;5011693;28;20075;-64
2021/01/27 09:36:37;;;;;;;0.40;0.40;;;23.70;92.10;;;;;;5011209;28;20072;-65
2021/01/27 09:39:03;;;;;;;0.70;0.35;;;24.00;92.00;;;;;;5011163;28;20030;-65
2021/01/27 09:41:32;;;;;;;0.50;0.40;;;24.10;91.90;;;;;;5011229;28;20139;-66
2021/01/27 09:44:00;;;;;;;0.50;0.30;;;24.30;91.90;;;;;;5010903;28;20160;-65
2021/01/27 09:46:35;;;;;;;0.82;0.32;;;24.50;92.20;;;;;;5014144;28;20036;-64
2021/01/27 09:49:11;;;;;;;0.82;0.30;;;24.60;91.80;;;;;;5015305;28;20033;-64
2021/01/27 09:51:39;;;;;;;0.30;0.20;;;24.90;92.00;;;;;;5014783;28;20430;-66
2021/01/27 09:54:05;;;;;;;2.28;0.40;;;24.60;92.00;;;;;;5014348;28;20111;-66
2021/01/27 09:56:32;;;;;;;2.30;0.40;;;23.40;93.00;;;;;;5014425;28;20034;-66
2021/01/27 09:58:59;;;;;;;0.73;0.30;;;22.50;94.00;;;;;;5014993;28;20237;-68
2021/01/27 10:01:29;;;;;;;2.03;0.40;;;21.80;94.90;;;;;;5014720;28;20061;-66
2021/01/27 10:04:17;;;;;;;1.38;0.40;;;21.30;95.60;;;;;;5014426;28;20026;-65
2021/01/27 10:06:51;;;;;;;0.98;0.50;;;20.90;96.10;;;;;;5014365;28;20022;-67
2021/01/27 10:09:25;;;;;;;0.52;0.40;;;20.60;96.40;;;;;;5014878;28;20093;-64
2021/01/27 10:12:06;;;;;;;0.60;0.47;;;20.40;96.80;;;;;;5014529;28;20053;-67
2021/01/27 10:14:35;;;;;;;1.35;0.50;;;20.20;97.20;;;;;;5014281;28;20050;-69
2021/01/27 10:17:04;;;;;;;0.60;0.40;;;21.50;96.40;;;;;;5014607;28;20084;-67
2021/01/27 10:19:43;;;;;;;0.60;0.50;;;22.60;94.90;;;;;;5014568;28;20033;-67
2021/01/27 10:22:10;;;;;;;0.50;0.30;;;23.40;94.00;;;;;;5014514;28;20034;-66
2021/01/27 10:24:47;;;;;;;0.80;0.47;;;23.90;93.40;;;;;;5013512;28;20101;-65
2021/01/27 10:27:37;;;;;;;0.55;0.40;;;23.80;93.40;;;;;;5013575;28;20474;-69
2021/01/27 10:30:22;;;;;;;1.05;0.43;;;22.70;94.30;;;;;;5007017;28;20045;-67
2021/01/27 10:32:48;;;;;;;0.80;0.50;;;21.80;95.20;;;;;;5013844;28;20064;-69
2021/01/27 10:35:19;;;;;;;0.90;0.43;;;21.20;96.10;;;;;;5014243;28;20054;-69
2021/01/27 10:37:45;;;;;;;0.60;0.40;;;20.70;96.60;;;;;;5013611;28;20129;-67
2021/01/27 10:40:16;;;;;;;0.77;0.50;;;20.40;97.00;;;;;;5013844;28;20390;-66
2021/01/27 10:42:54;;;;;;;0.77;0.40;;;20.10;97.40;;;;;;5013654;28;20092;-68
2021/01/27 10:45:32;;;;;;;1.25;0.50;;;19.90;97.70;;;;;;5013682;28;20030;-70
2021/01/27 10:48:18;;;;;;;0.75;0.40;;;21.20;96.60;;;;;;5014088;28;20076;-70
2021/01/27 10:50:56;;;;;;;1.77;0.47;;;22.50;95.30;;;;;;5009535;28;20034;-68
2021/01/27 10:53:21;;;;;;;1.92;0.38;;;23.30;94.30;;;;;;5013453;28;20496;-68
2021/01/27 10:55:53;;;;;;;0.82;0.50;;;22.70;94.60;;;;;;5013022;28;20038;-64
2021/01/27 10:58:19;;;;;;;1.30;0.63;;;21.80;94.50;;;;;;5013637;28;20057;-65
2021/01/27 11:00:45;;;;;;;1.48;0.80;;;21.30;94.80;;;;;;5012734;28;20073;-66
2021/01/27 11:03:12;;;;;;;1.95;0.90;;;20.90;94.60;;;;;;5013519;28;20446;-67
2021/01/27 11:05:38;;;;;;;1.63;0.93;;;20.70;94.30;;;;;;5012885;28;20051;-67
2021/01/27 11:08:05;;;;;;;1.90;0.80;;;20.50;94.30;;;;;;5012278;28;20105;-66
2021/01/27 11:10:31;;;;;;;2.65;1.00;;;20.30;94.60;;;;;;5012780;28;20474;-67
2021/01/27 11:12:57;;;;;;;2.20;0.75;;;20.10;94.80;;;;;;5013565;28;20033;-68
2021/01/27 11:15:23;;;;;;;1.67;1.00;;;20.00;95.00;;;;;;5012530;28;20049;-70
2021/01/27 11:17:50;;;;;;;1.50;1.10;;;19.80;95.10;;;;;;5012499;28;20026;-67
2021/01/27 11:20:19;;;;;;;1.95;1.20;;;19.70;95.20;;;;;;5012240;28;20125;-68
2021/01/27 11:22:46;;;;;;;1.52;0.98;;;19.60;95.40;;;;;;5011914;28;20022;-66
2021/01/27 11:25:16;;;;;;;2.53;1.30;;;19.50;95.50;;;;;;5013306;28;20088;-66
2021/01/27 11:27:41;;;;;;;2.63;1.02;;;19.40;95.70;;;;;;5012921;28;20418;-66
2021/01/27 11:30:07;;;;;;;1.92;1.10;;;19.20;95.90;;;;;;5012652;28;20060;-65
2021/01/27 11:32:35;;;;;;;2.40;1.40;;;19.20;96.20;;;;;;5008701;28;20090;-66
2021/01/27 11:35:01;;;;;;;3.33;1.30;;;19.10;96.40;;;;;;5012621;28;20018;-66
2021/01/27 11:37:27;;;;;;;4.20;1.63;;;19.00;96.60;;;;;;5012135;28;20493;-66
2021/01/27 11:39:53;;;;;;;4.05;1.52;;;18.90;96.70;;;;;;5011776;28;20517;-66
2021/01/27 11:42:18;;;;;;;3.90;1.95;;;18.80;96.90;;;;;;5012939;28;20026;-66
2021/01/27 11:44:44;;;;;;;4.65;2.17;;;18.80;96.90;;;;;;5012640;28;20037;-66
2021/01/27 11:47:10;;;;;;;4.28;2.03;;;18.70;97.10;;;;;;5012897;28;20058;-66
2021/01/27 11:49:35;;;;;;;2.88;1.95;;;18.60;97.30;;;;;;5012615;28;20386;-66
2021/01/27 11:52:04;;;;;;;5.93;2.15;;;18.60;97.50;;;;;;5013226;28;20386;-67
2021/01/27 11:54:30;;;;;;;3.88;2.20;;;18.50;97.70;;;;;;5012628;28;20026;-66
2021/01/27 11:56:57;;;;;;;5.53;2.67;;;18.40;97.90;;;;;;5012099;28;20030;-66
2021/01/27 11:59:22;;;;;;;6.40;2.42;;;18.40;98.00;;;;;;5012759;28;20033;-67
2021/01/27 12:01:48;;;;;;;5.80;2.25;;;18.20;98.20;;;;;;5009538;28;20060;-66
2021/01/27 12:04:13;;;;;;;5.50;2.50;;;18.20;98.30;;;;;;5010975;28;20074;-66
2021/01/27 12:06:39;;;;;;;5.00;2.13;;;18.10;98.50;;;;;;5011759;28;20462;-67
2021/01/27 12:09:05;;;;;;;5.20;2.60;;;;;;;;;;5011540;28;20049;-67
2021/01/27 12:11:31;;;;;;;6.32;2.65;;;18.00;99.90;;;;;;5012715;28;20026;-67
2021/01/27 12:13:56;;;;;;;4.78;2.45;;;18.00;99.90;;;;;;5011439;28;20462;-67
2021/01/27 12:16:22;;;;;;;3.38;2.17;;;17.90;99.90;;;;;;5011895;28;20045;-66
2021/01/27 12:18:47;;;;;;;8.35;2.72;;;17.90;99.90;;;;;;5011429;28;20030;-67
2021/01/27 12:21:13;;;;;;;4.72;2.22;;;17.90;99.90;;;;;;5012206;28;20042;-66
2021/01/27 12:23:38;;;;;;;6.45;2.50;;;17.80;99.90;;;;;;5012013;28;20018;-67
2021/01/27 12:26:04;;;;;;;4.25;2.47;;;17.70;99.90;;;;;;5001614;28;20026;-67
2021/01/27 12:28:30;;;;;;;5.10;2.60;;;17.50;99.90;;;;;;5007646;28;20033;-68
2021/01/27 12:30:55;;;;;;;4.97;2.22;;;17.40;99.90;;;;;;5011045;28;20069;-65
2021/01/27 12:33:21;;;;;;;5.35;2.58;;;17.30;99.90;;;;;;5012076;28;20033;-65
2021/01/27 12:35:47;;;;;;;4.50;2.22;;;17.30;99.90;;;;;;5011883;28;20449;-67
2021/01/27 12:38:13;;;;;;;5.68;2.38;;;17.20;99.90;;;;;;5011824;28;20026;-66
2021/01/27 12:40:38;;;;;;;5.35;2.50;;;17.20;99.90;;;;;;5011002;28;20052;-67
2021/01/27 12:43:04;;;;;;;6.80;2.50;;;17.10;99.90;;;;;;5011913;28;20038;-69
2021/01/27 12:45:30;;;;;;;5.05;2.47;;;17.10;99.90;;;;;;5012334;28;20106;-68
2021/01/27 12:47:57;;;;;;;5.15;2.50;;;17.00;99.90;;;;;;5011557;28;20030;-68
2021/01/27 12:50:23;;;;;;;5.43;2.90;;;17.00;99.90;;;;;;5011689;28;20077;-73
2021/01/27 12:52:49;;;;;;;5.90;2.70;;;16.90;99.90;;;;;;5011766;28;20435;-68
2021/01/27 12:55:17;;;;;;;7.05;2.95;;;16.80;99.90;;;;;;5011751;28;20022;-69
2021/01/27 12:57:44;;;;;;;4.75;2.75;;;16.80;99.90;;;;;;5010763;28;20026;-70
2021/01/27 13:00:19;;;;;;;5.55;2.60;;;16.70;99.90;;;;;;5010270;28;20065;-69
2021/01/27 13:02:45;;;;;;;5.10;3.15;;;16.60;99.90;;;;;;5011403;28;20053;-68
2021/01/27 13:05:12;;;;;;;4.75;2.35;;;16.60;99.90;;;;;;5010466;28;20052;-70
2021/01/27 13:07:38;;;;;;;7.45;2.53;;;17.50;99.90;;;;;;5011242;28;20121;-67
2021/01/27 13:10:08;;;;;;;4.57;1.70;;;19.10;99.00;;;;;;5011454;28;20105;-70
2021/01/27 13:12:34;;;;;;;3.60;1.65;;;20.30;98.20;;;;;;5011655;28;20083;-70
2021/01/27 13:15:00;;;;;;;2.83;1.60;;;21.10;96.50;;;;;;5011325;28;20022;-71
2021/01/27 13:17:25;;;;;;;2.47;1.30;;;21.60;99.90;;;;;;5011617;28;20497;-70